Abbeville, France

5:57 PM CET on December 10, 2016 (GMT +0100)
D106 | | Change Station

Elev 157 ft 50.12 °N, 1.57 °E | Updated 11 minutes ago

Mostly Cloudy
Mostly Cloudy
51.4 °F
Feels Like 51.4 °F
N
1.2
Wind Variable Wind from SE
Gusts 5.0 mph

Today
High -- | Low -- °F
--% Chance of Precip.
Yesterday
High -- | Low -- °F
Precip. -- in
Pressure 30.18 in
Visibility 6.2 miles
Clouds Scattered Clouds 3100 ft
Mostly Cloudy 3800 ft
Mostly Cloudy 6600 ft
Dew Point 48 °F
Humidity 87%
Rainfall 0.00 in
Snow Depth Not available.
8:40 AM 4:50 PM
Waxing Gibbous, 85% visible
METAR LFAT 101630Z AUTO 21008KT 180V250 9999 SCT031 BKN038 BKN066 11/08 Q1022 TEMPO OVC013
Pressure 30.18 in
Visibility 6.2 miles
Clouds Scattered Clouds 3100 ft
Mostly Cloudy 3800 ft
Mostly Cloudy 6600 ft
Dew Point 48 °F
Humidity 87%
Rainfall 0.00 in
Snow Depth Not available.
8:40 AM 4:50 PM
Waxing Gibbous, 85% visible
METAR LFAT 101630Z AUTO 21008KT 180V250 9999 SCT031 BKN038 BKN066 11/08 Q1022 TEMPO OVC013

10-Day Weather Forecast

×

Almanac

Astronomy

Dec. 10, 2016 Rise Set
Actual Time
Civil Twilight
Nautical Twilight
Astronomical Twilight
Moon
Length of Visible Light
Length of Day
Tomorrow will be .
, % of the Moon is Illuminated

Today's Extremes

Country Highs Country Lows

Community

WunderPhotos

Upload Photos

1,956,569 photos uploaded!

WunderBlog® & News

Nearby

Air Quality

  Air Quality AQ Index Pollutant
Not available.

Snow Depth

Station Depth Elevation

Earthquake Activity

City Distance Mag. Time & Date
Minimum magnitude displayed is 2.5.

Coastal Water Temperatures

Place Temperature

Stations

Nearby Weather Stations

Station Location Temp. Windchill Dew Point Humidity Wind Precip. Elev Updated Type